createdAt,value
2023-03-27T00:02:29.076Z,84.75
2023-03-27T00:04:57.273Z,84.74
2023-03-27T00:07:25.265Z,84.49
2023-03-27T00:09:53.625Z,84.72
2023-03-27T00:12:21.584Z,84.47
2023-03-27T00:14:49.782Z,84.67
2023-03-27T00:17:17.936Z,84.82
2023-03-27T00:19:46.005Z,84.59
2023-03-27T00:22:14.089Z,85.18
2023-03-27T00:24:42.148Z,85.34
2023-03-27T00:27:10.151Z,85.41
2023-03-27T00:29:39.853Z,85.49
2023-03-27T00:32:07.995Z,85.54
2023-03-27T00:34:35.931Z,85.40
2023-03-27T00:37:05.773Z,85.63
2023-03-27T00:39:34.257Z,85.38
2023-03-27T00:42:02.224Z,85.63
2023-03-27T00:44:35.782Z,85.46
2023-03-27T00:47:05.228Z,85.50
2023-03-27T00:49:37.621Z,85.32
2023-03-27T00:52:07.175Z,85.69
2023-03-27T00:54:40.490Z,85.49
2023-03-27T00:57:14.368Z,85.70
2023-03-27T00:59:46.465Z,85.54
2023-03-27T01:02:16.116Z,85.73
2023-03-27T01:04:46.569Z,85.54
2023-03-27T01:07:16.319Z,85.41
2023-03-27T01:09:46.084Z,85.91
2023-03-27T01:12:33.451Z,85.71
2023-03-27T01:15:04.724Z,85.79
2023-03-27T01:18:10.522Z,85.70
2023-03-27T01:20:38.518Z,85.86
2023-03-27T01:23:12.633Z,85.73
2023-03-27T01:26:02.626Z,86.06
2023-03-27T01:29:04.794Z,86.22
2023-03-27T01:31:36.054Z,86.25
2023-03-27T01:34:26.120Z,86.03
2023-03-27T01:37:11.600Z,86.04
2023-03-27T01:40:01.496Z,85.86
2023-03-27T01:42:58.886Z,85.80
2023-03-27T01:45:50.562Z,86.08
2023-03-27T01:48:29.695Z,85.96
2023-03-27T01:51:12.109Z,85.92
2023-03-27T01:53:49.592Z,86.04
2023-03-27T01:56:32.855Z,86.37
2023-03-27T01:59:07.039Z,86.08
2023-03-27T02:01:39.977Z,86.14
2023-03-27T02:04:16.388Z,86.23
2023-03-27T02:07:00.940Z,86.34
2023-03-27T02:09:52.167Z,86.57
2023-03-27T02:12:30.448Z,86.52
2023-03-27T02:15:23.408Z,86.86
2023-03-27T02:18:05.287Z,86.62
2023-03-27T02:20:35.952Z,86.80
2023-03-27T02:23:06.540Z,86.73
2023-03-27T02:25:38.963Z,86.79
2023-03-27T02:28:31.806Z,86.58
2023-03-27T02:31:33.750Z,86.48
2023-03-27T02:34:29.300Z,86.75
2023-03-27T02:37:32.404Z,86.54
2023-03-27T02:40:24.476Z,86.94
2023-03-27T02:43:07.455Z,86.89
2023-03-27T02:45:40.651Z,87.20
2023-03-27T02:48:34.404Z,86.98
2023-03-27T02:51:21.823Z,87.13
2023-03-27T02:53:58.290Z,87.28
2023-03-27T02:56:32.248Z,87.29
2023-03-27T02:59:17.768Z,87.15
2023-03-27T03:01:46.324Z,87.30
2023-03-27T03:04:22.443Z,86.96
2023-03-27T03:07:11.578Z,86.83
2023-03-27T03:09:44.731Z,87.40
2023-03-27T03:12:12.870Z,87.19
2023-03-27T03:14:47.173Z,87.12
2023-03-27T03:17:16.826Z,87.47
2023-03-27T03:19:46.490Z,87.35
2023-03-27T03:22:15.046Z,87.37
2023-03-27T03:24:43.936Z,87.42
2023-03-27T03:27:16.246Z,87.17
2023-03-27T03:29:49.316Z,87.30
2023-03-27T03:32:20.979Z,87.22
2023-03-27T03:34:51.331Z,87.39
2023-03-27T03:37:20.722Z,87.11
2023-03-27T03:39:48.671Z,87.08
2023-03-27T03:42:22.974Z,87.26
2023-03-27T03:44:55.993Z,87.41
2023-03-27T03:47:24.280Z,87.36
2023-03-27T03:49:52.217Z,87.31
2023-03-27T03:52:21.414Z,87.37
2023-03-27T03:54:49.485Z,87.14
2023-03-27T03:57:18.759Z,87.48
2023-03-27T03:59:55.247Z,87.60
2023-03-27T04:02:43.852Z,87.47
2023-03-27T04:05:14.530Z,87.37
2023-03-27T04:07:43.317Z,87.22
2023-03-27T04:10:20.340Z,87.32
2023-03-27T04:12:50.023Z,87.44
2023-03-27T04:15:28.529Z,87.38
2023-03-27T04:18:19.783Z,87.42
2023-03-27T04:20:51.429Z,87.33
2023-03-27T04:23:20.707Z,87.69
2023-03-27T04:25:49.187Z,88.19
2023-03-27T04:28:22.985Z,88.80
2023-03-27T04:30:58.309Z,88.92
2023-03-27T04:33:30.698Z,89.17
2023-03-27T04:36:14.965Z,89.24
2023-03-27T04:38:53.485Z,89.16
2023-03-27T04:41:21.739Z,89.16
2023-03-27T04:43:50.140Z,88.67
2023-03-27T04:46:18.329Z,88.80
2023-03-27T04:48:52.105Z,88.62
2023-03-27T04:51:32.553Z,88.62
2023-03-27T04:54:05.013Z,88.34
2023-03-27T04:56:35.278Z,88.35
2023-03-27T04:59:04.935Z,88.72
2023-03-27T05:01:34.198Z,88.42
2023-03-27T05:04:21.279Z,88.18
2023-03-27T05:07:03.068Z,88.33
2023-03-27T05:09:31.348Z,88.06
2023-03-27T05:11:59.419Z,88.14
2023-03-27T05:14:27.821Z,88.20
2023-03-27T05:16:58.249Z,88.00
2023-03-27T05:19:26.957Z,88.18
2023-03-27T05:22:00.201Z,88.33
2023-03-27T05:24:28.891Z,88.08
2023-03-27T05:26:57.893Z,88.32
2023-03-27T05:29:27.189Z,88.23
2023-03-27T05:32:06.697Z,88.15
2023-03-27T05:34:41.044Z,88.00
2023-03-27T05:37:11.775Z,88.35
2023-03-27T05:40:02.059Z,88.76
2023-03-27T05:42:31.564Z,88.41
2023-03-27T05:44:59.729Z,88.31
2023-03-27T05:47:27.884Z,88.48
2023-03-27T05:49:56.242Z,88.40
2023-03-27T05:52:28.757Z,89.08
2023-03-27T05:54:57.856Z,89.67
2023-03-27T05:57:26.851Z,90.07
2023-03-27T05:59:58.117Z,90.11
2023-03-27T06:02:26.397Z,89.98
2023-03-27T06:05:01.322Z,90.34
2023-03-27T06:07:35.420Z,90.22
2023-03-27T06:10:14.124Z,90.21
2023-03-27T06:13:13.902Z,89.84
2023-03-27T06:15:54.489Z,89.91
2023-03-27T06:18:41.471Z,90.29
2023-03-27T06:21:10.635Z,90.64
2023-03-27T06:23:38.917Z,91.17
2023-03-27T06:26:12.135Z,91.23
2023-03-27T06:28:40.371Z,91.04
2023-03-27T06:31:09.238Z,91.41
2023-03-27T06:33:58.535Z,91.23
2023-03-27T06:36:46.785Z,90.45
2023-03-27T06:39:14.741Z,89.85
2023-03-27T06:41:49.003Z,88.92
2023-03-27T06:44:34.944Z,88.56
2023-03-27T06:47:12.277Z,88.21
2023-03-27T06:49:58.840Z,87.78
2023-03-27T06:52:27.097Z,86.89
2023-03-27T06:54:59.186Z,86.12
2023-03-27T06:57:27.366Z,85.39
2023-03-27T07:00:02.154Z,85.07
2023-03-27T07:02:54.161Z,84.95
2023-03-27T07:05:42.942Z,84.93
2023-03-27T07:08:23.186Z,84.53
2023-03-27T07:13:26.359Z,84.72
2023-03-27T07:15:55.048Z,84.73
2023-03-27T07:18:24.060Z,83.93
2023-03-27T07:20:53.232Z,83.70
2023-03-27T07:23:23.653Z,83.53
2023-03-27T07:26:07.481Z,83.27
2023-03-27T07:28:54.932Z,83.44
2023-03-27T07:31:36.487Z,83.22
2023-03-27T07:34:12.462Z,83.30
2023-03-27T07:37:09.955Z,83.33
2023-03-27T07:39:40.161Z,82.99
2023-03-27T07:42:09.380Z,82.63
2023-03-27T07:45:04.330Z,82.58
2023-03-27T07:47:32.866Z,82.25
2023-03-27T07:50:01.837Z,81.41
2023-03-27T07:52:30.279Z,81.30
2023-03-27T07:55:00.199Z,81.16
2023-03-27T07:57:54.535Z,81.09
2023-03-27T08:00:28.179Z,80.85
2023-03-27T08:03:07.216Z,80.21
2023-03-27T08:05:37.266Z,79.71
2023-03-27T08:08:11.149Z,79.81
2023-03-27T08:11:01.904Z,79.20
2023-03-27T08:13:41.124Z,78.71
2023-03-27T08:16:13.378Z,78.10
2023-03-27T08:18:42.943Z,78.23
2023-03-27T08:21:12.894Z,77.88
2023-03-27T08:23:41.352Z,77.20
2023-03-27T08:26:09.724Z,76.70
2023-03-27T08:28:44.991Z,76.11
2023-03-27T08:31:16.273Z,75.13
2023-03-27T08:33:45.504Z,74.93
2023-03-27T08:36:20.324Z,74.37
2023-03-27T08:38:49.649Z,74.17
2023-03-27T08:41:31.963Z,73.87
2023-03-27T08:44:20.237Z,73.49
2023-03-27T08:46:54.954Z,73.70
2023-03-27T08:49:38.893Z,72.94
2023-03-27T08:52:33.337Z,72.88
2023-03-27T08:55:18.890Z,72.02
2023-03-27T08:57:55.187Z,71.49
2023-03-27T09:00:32.318Z,70.66
2023-03-27T09:03:27.777Z,70.85
2023-03-27T09:06:08.530Z,70.14
2023-03-27T09:09:01.399Z,70.40
2023-03-27T09:11:41.283Z,69.93
2023-03-27T09:14:26.252Z,69.47
2023-03-27T09:16:59.934Z,69.58
2023-03-27T09:19:48.203Z,68.70
2023-03-27T09:22:27.752Z,68.71
2023-03-27T09:25:40.305Z,68.12
2023-03-27T09:28:29.630Z,67.90
2023-03-27T09:31:20.762Z,67.35
2023-03-27T09:33:49.379Z,67.03
2023-03-27T09:36:17.554Z,67.45
2023-03-27T09:38:51.124Z,67.14
2023-03-27T09:41:47.997Z,67.02
2023-03-27T09:44:34.349Z,66.99
2023-03-27T09:47:17.909Z,66.16
2023-03-27T09:49:50.850Z,66.22
2023-03-27T09:52:43.466Z,66.25
2023-03-27T09:55:31.501Z,66.10
2023-03-27T09:58:25.002Z,65.23
2023-03-27T10:01:14.566Z,65.38
2023-03-27T10:03:53.182Z,65.03
2023-03-27T10:07:05.567Z,64.13
2023-03-27T10:10:12.189Z,63.82
2023-03-27T10:20:35.460Z,63.62
2023-03-27T10:23:09.738Z,63.30
2023-03-27T10:25:45.531Z,63.37
2023-03-27T10:28:34.640Z,63.06
2023-03-27T10:31:38.257Z,62.68
2023-03-27T10:34:28.099Z,62.84
2023-03-27T10:37:03.831Z,61.53
2023-03-27T10:39:36.206Z,61.64
2023-03-27T10:42:16.255Z,60.84
2023-03-27T10:44:49.601Z,60.10
2023-03-27T10:47:27.604Z,59.91
2023-03-27T10:50:04.121Z,60.14
2023-03-27T10:52:48.847Z,59.25
2023-03-27T10:55:34.057Z,59.74
2023-03-27T10:58:12.810Z,59.46
2023-03-27T11:00:48.887Z,58.83
2023-03-27T11:03:30.351Z,59.09
2023-03-27T11:06:06.608Z,58.71
2023-03-27T11:09:06.057Z,59.19
2023-03-27T11:11:47.474Z,58.50
2023-03-27T11:14:26.423Z,57.62
2023-03-27T11:17:04.203Z,57.40
2023-03-27T11:19:54.899Z,57.20
2023-03-27T11:22:40.893Z,56.80
2023-03-27T11:25:12.339Z,57.18
2023-03-27T11:27:43.423Z,56.90
2023-03-27T11:30:26.324Z,56.08
2023-03-27T11:33:24.374Z,55.61
2023-03-27T11:36:15.008Z,55.37
2023-03-27T11:39:05.033Z,54.40
2023-03-27T11:41:33.745Z,54.01
2023-03-27T11:44:04.176Z,54.52
2023-03-27T11:47:25.630Z,54.68
2023-03-27T11:50:01.550Z,54.48
2023-03-27T11:52:41.088Z,54.01
2023-03-27T11:55:15.553Z,53.84
2023-03-27T11:58:18.503Z,53.91
2023-03-27T12:01:13.206Z,53.92
2023-03-27T12:04:01.007Z,53.66
2023-03-27T12:07:35.286Z,52.99
2023-03-27T12:10:40.919Z,53.62
2023-03-27T12:14:17.715Z,53.11
2023-03-27T12:17:12.716Z,53.40
2023-03-27T12:19:54.071Z,53.18
2023-03-27T12:22:50.304Z,53.40
2023-03-27T12:25:53.508Z,53.83
2023-03-27T12:28:58.857Z,53.98
2023-03-27T12:31:48.085Z,52.64
2023-03-27T12:34:31.235Z,51.58
2023-03-27T12:37:00.935Z,50.18
2023-03-27T12:39:29.136Z,51.13
2023-03-27T12:42:13.574Z,51.26
2023-03-27T12:45:15.349Z,51.00
2023-03-27T12:48:04.110Z,51.61
2023-03-27T12:50:42.198Z,51.68
2023-03-27T12:53:39.755Z,50.84
2023-03-27T12:56:09.980Z,50.67
2023-03-27T12:58:40.250Z,50.83
2023-03-27T13:01:51.787Z,50.57
2023-03-27T13:04:50.821Z,50.49
2023-03-27T13:07:31.791Z,50.36
2023-03-27T13:10:39.455Z,50.45
2023-03-27T13:13:39.635Z,51.32
2023-03-27T13:16:37.086Z,51.28
2023-03-27T13:19:38.368Z,51.26
2023-03-27T13:22:42.936Z,51.41
2023-03-27T13:25:40.397Z,51.70
2023-03-27T13:28:20.558Z,51.82
2023-03-27T13:30:59.278Z,52.03
2023-03-27T13:33:47.603Z,52.26
2023-03-27T13:36:29.308Z,52.47
2023-03-27T13:38:57.327Z,51.90
2023-03-27T13:41:43.594Z,51.91
2023-03-27T13:44:26.806Z,51.77
2023-03-27T13:47:12.363Z,51.32
2023-03-27T13:50:05.024Z,50.95
2023-03-27T13:52:48.229Z,51.13
2023-03-27T13:55:28.105Z,51.51
2023-03-27T13:58:46.763Z,51.44
2023-03-27T14:01:39.077Z,51.50
2023-03-27T14:04:33.618Z,52.01
2023-03-27T14:07:24.367Z,51.96
2023-03-27T14:10:17.503Z,51.94
2023-03-27T14:13:14.072Z,52.18
2023-03-27T14:16:14.745Z,52.40
2023-03-27T14:19:12.283Z,52.47
2023-03-27T14:21:56.025Z,52.48
2023-03-27T14:24:36.835Z,52.77
2023-03-27T14:27:20.375Z,53.03
2023-03-27T14:30:07.716Z,53.56
2023-03-27T14:32:37.369Z,53.56
2023-03-27T14:35:06.081Z,53.85
2023-03-27T14:37:42.043Z,54.31
2023-03-27T14:40:41.517Z,54.45
2023-03-27T14:43:12.531Z,53.86
2023-03-27T14:45:41.402Z,53.69
2023-03-27T14:48:23.029Z,53.61
2023-03-27T14:51:01.914Z,53.97
2023-03-27T14:53:36.645Z,54.37
2023-03-27T14:56:30.903Z,54.43
2023-03-27T14:59:03.073Z,54.28
2023-03-27T15:01:42.512Z,54.77
2023-03-27T15:04:14.109Z,55.26
2023-03-27T15:06:43.104Z,55.79
2023-03-27T15:09:15.790Z,55.74
2023-03-27T15:12:11.119Z,56.11
2023-03-27T15:14:40.672Z,56.38
2023-03-27T15:17:18.002Z,55.99
2023-03-27T15:19:55.895Z,55.49
2023-03-27T15:22:44.366Z,55.52
2023-03-27T15:25:17.732Z,55.48
2023-03-27T15:27:52.865Z,55.93
2023-03-27T15:30:21.262Z,55.97
2023-03-27T15:32:55.328Z,56.08
2023-03-27T15:35:34.440Z,56.21
2023-03-27T15:38:05.402Z,56.46
2023-03-27T15:40:35.411Z,56.51
2023-03-27T15:43:19.971Z,56.69
2023-03-27T15:45:57.179Z,56.73
2023-03-27T15:48:35.428Z,56.94
2023-03-27T15:51:27.000Z,57.17
2023-03-27T15:54:00.161Z,57.78
2023-03-27T15:56:42.458Z,58.07
2023-03-27T15:59:14.454Z,58.54
2023-03-27T16:01:52.244Z,58.58
2023-03-27T16:13:59.231Z,59.49
2023-03-27T16:16:29.447Z,59.66
2023-03-27T16:19:11.520Z,60.16
2023-03-27T16:21:54.144Z,60.12
2023-03-27T16:24:22.078Z,60.45
2023-03-27T16:26:51.702Z,60.64
2023-03-27T16:29:20.488Z,60.66
2023-03-27T16:31:48.380Z,60.17
2023-03-27T16:34:22.937Z,60.26
2023-03-27T16:36:51.561Z,60.18
2023-03-27T16:39:19.613Z,60.32
2023-03-27T16:41:47.776Z,60.38
2023-03-27T16:44:15.862Z,60.52
2023-03-27T16:46:43.880Z,60.32
2023-03-27T16:49:12.802Z,60.32
2023-03-27T16:51:41.189Z,60.12
2023-03-27T16:54:09.355Z,60.14
2023-03-27T16:56:37.505Z,60.35
2023-03-27T17:03:39.993Z,60.23
2023-03-27T17:06:10.258Z,60.50
2023-03-27T17:08:38.782Z,60.73
2023-03-27T17:11:12.947Z,60.46
2023-03-27T17:13:43.430Z,60.91
2023-03-27T17:16:11.914Z,60.91
2023-03-27T17:18:39.806Z,60.73
2023-03-27T17:21:08.061Z,61.02
2023-03-27T17:23:36.501Z,60.99
2023-03-27T17:26:05.137Z,60.87
2023-03-27T17:28:33.152Z,60.74
2023-03-27T17:31:05.201Z,60.78
2023-03-27T17:33:33.937Z,60.47
2023-03-27T17:36:07.938Z,60.59
2023-03-27T17:38:36.143Z,60.17
2023-03-27T17:41:04.135Z,59.78
2023-03-27T17:43:32.595Z,59.88
2023-03-27T17:46:00.922Z,60.31
2023-03-27T17:48:29.128Z,59.87
2023-03-27T17:55:32.979Z,59.76
2023-03-27T17:58:08.751Z,59.34
2023-03-27T18:00:39.458Z,59.34
2023-03-27T18:03:09.009Z,59.14
2023-03-27T18:05:41.374Z,59.62
2023-03-27T18:08:12.188Z,59.56
2023-03-27T18:10:48.646Z,59.77
2023-03-27T18:13:18.322Z,59.62
2023-03-27T18:15:46.608Z,59.85
2023-03-27T18:18:14.532Z,59.81
2023-03-27T18:20:42.454Z,59.92
2023-03-27T18:23:10.417Z,60.07
2023-03-27T18:25:43.045Z,60.11
2023-03-27T18:28:11.422Z,60.00
2023-03-27T18:30:39.814Z,59.95
2023-03-27T18:33:08.805Z,60.06
2023-03-27T18:35:37.889Z,60.26
2023-03-27T18:38:06.183Z,60.14
2023-03-27T18:40:34.136Z,60.19
2023-03-27T18:47:37.805Z,59.94
2023-03-27T18:50:06.819Z,59.16
2023-03-27T18:52:34.774Z,59.07
2023-03-27T18:55:02.776Z,58.95
2023-03-27T18:57:30.936Z,58.59
2023-03-27T19:00:00.209Z,58.41
2023-03-27T19:02:28.830Z,58.37
2023-03-27T19:04:56.926Z,58.33
2023-03-27T19:07:24.842Z,58.55
2023-03-27T19:09:53.039Z,58.30
2023-03-27T19:12:22.073Z,57.57
2023-03-27T19:15:19.359Z,57.70
2023-03-27T19:18:17.755Z,57.43
2023-03-27T19:21:05.945Z,57.46
2023-03-27T19:23:46.100Z,57.67
2023-03-27T19:26:16.951Z,57.79
2023-03-27T19:28:47.749Z,57.91
2023-03-27T19:31:17.129Z,58.03
2023-03-27T19:33:45.926Z,58.33
2023-03-27T19:36:14.028Z,58.29
2023-03-27T19:38:43.689Z,57.83
2023-03-27T19:41:11.966Z,57.76
2023-03-27T19:43:40.666Z,57.41
2023-03-27T19:46:16.418Z,57.81
2023-03-27T19:48:47.483Z,56.89
2023-03-27T19:51:30.243Z,56.30
2023-03-27T19:53:58.228Z,55.92
2023-03-27T19:56:28.005Z,55.42
2023-03-27T20:03:30.597Z,55.09
2023-03-27T20:06:07.546Z,55.04
2023-03-27T20:08:39.614Z,54.33
2023-03-27T20:11:07.705Z,54.40
2023-03-27T20:13:48.878Z,54.19
2023-03-27T20:16:26.813Z,54.00
2023-03-27T20:19:04.777Z,54.05
2023-03-27T20:21:39.782Z,53.93
2023-03-27T20:24:17.766Z,54.21
2023-03-27T20:26:57.768Z,54.12
2023-03-27T20:29:29.768Z,54.13
2023-03-27T20:32:00.745Z,54.35
2023-03-27T20:34:33.724Z,54.37
2023-03-27T20:37:12.784Z,54.63
2023-03-27T20:39:48.804Z,54.56
2023-03-27T20:42:25.784Z,54.46
2023-03-27T20:44:59.843Z,54.73
2023-03-27T20:47:39.992Z,54.64
2023-03-27T20:54:35.756Z,54.76
2023-03-27T20:57:07.826Z,54.86
2023-03-27T20:59:38.815Z,54.81
2023-03-27T21:02:18.882Z,54.82
2023-03-27T21:04:50.786Z,54.80
2023-03-27T21:07:22.804Z,55.13
2023-03-27T21:09:54.814Z,55.21
2023-03-27T21:12:25.797Z,55.34
2023-03-27T21:22:28.884Z,55.75
2023-03-27T21:24:58.832Z,55.88
2023-03-27T21:27:27.025Z,56.03
2023-03-27T21:29:55.087Z,56.20
2023-03-27T21:32:23.181Z,56.34
2023-03-27T21:34:51.123Z,56.55
2023-03-27T21:37:19.209Z,56.60
2023-03-27T21:39:47.271Z,56.94
2023-03-27T21:42:16.583Z,57.05
2023-03-27T21:44:48.299Z,57.12
2023-03-27T21:47:19.719Z,57.38
2023-03-27T21:49:47.837Z,57.62
2023-03-27T21:52:15.910Z,57.68
2023-03-27T21:54:53.117Z,57.63
2023-03-27T21:57:28.432Z,57.90
2023-03-27T21:59:56.707Z,58.07
2023-03-27T22:02:24.725Z,58.23
2023-03-27T22:04:53.102Z,58.48
2023-03-27T22:07:21.234Z,58.65
2023-03-27T22:09:49.207Z,58.77
2023-03-27T22:12:17.165Z,59.02
2023-03-27T22:14:45.785Z,59.12
2023-03-27T22:17:14.024Z,59.34
2023-03-27T22:19:41.998Z,59.48
2023-03-27T22:22:10.091Z,59.50
2023-03-27T22:24:38.135Z,59.78
2023-03-27T22:27:06.114Z,59.93
2023-03-27T22:29:34.185Z,60.01
2023-03-27T22:32:02.654Z,60.35
2023-03-27T22:34:30.619Z,60.38
2023-03-27T22:36:58.697Z,60.49
2023-03-27T22:39:27.581Z,60.50
2023-03-27T22:41:55.787Z,60.76
2023-03-27T22:44:24.029Z,60.83
2023-03-27T22:46:53.202Z,60.97
2023-03-27T22:49:21.749Z,61.06
2023-03-27T22:51:49.780Z,61.22
2023-03-27T22:54:19.075Z,61.17
2023-03-27T22:56:47.898Z,61.36
2023-03-27T22:59:17.502Z,61.62
2023-03-27T23:01:45.648Z,61.53
2023-03-27T23:04:13.718Z,61.69
2023-03-27T23:06:41.806Z,62.02
2023-03-27T23:09:10.726Z,61.87
2023-03-27T23:11:38.755Z,62.07
2023-03-27T23:14:06.825Z,62.55
2023-03-27T23:16:34.850Z,62.83
2023-03-27T23:19:03.575Z,62.92
2023-03-27T23:21:31.754Z,62.94
2023-03-27T23:23:59.740Z,63.10
2023-03-27T23:26:27.800Z,63.35
2023-03-27T23:28:55.817Z,63.39
2023-03-27T23:31:23.877Z,63.49
2023-03-27T23:33:52.225Z,63.77
2023-03-27T23:36:23.356Z,64.02
2023-03-27T23:38:52.926Z,64.29
2023-03-27T23:41:21.758Z,64.20
2023-03-27T23:43:50.149Z,64.10
2023-03-27T23:46:18.590Z,64.52
2023-03-27T23:48:46.780Z,64.73
2023-03-27T23:51:16.427Z,64.69
2023-03-27T23:53:45.188Z,64.66
2023-03-27T23:56:13.246Z,65.07
2023-03-27T23:58:41.353Z,65.34
